sensor_id;sensor_type;location;lat;lon;timestamp;temperature;humidity
8557;DHT22;4316;53.840;10.762;2022-08-24T00:01:44;19.80;99.90
8557;DHT22;4316;53.840;10.762;2022-08-24T00:04:09;19.80;99.90
8557;DHT22;4316;53.840;10.762;2022-08-24T00:06:35;19.80;99.90
8557;DHT22;4316;53.840;10.762;2022-08-24T00:09:00;19.80;99.90
8557;DHT22;4316;53.840;10.762;2022-08-24T00:11:26;19.80;99.90
8557;DHT22;4316;53.840;10.762;2022-08-24T00:13:54;19.80;99.90
8557;DHT22;4316;53.840;10.762;2022-08-24T00:16:19;19.70;99.90
8557;DHT22;4316;53.840;10.762;2022-08-24T00:18:46;19.70;99.90
8557;DHT22;4316;53.840;10.762;2022-08-24T00:21:12;19.70;99.90
8557;DHT22;4316;53.840;10.762;2022-08-24T00:23:38;19.70;99.90
8557;DHT22;4316;53.840;10.762;2022-08-24T00:26:04;19.60;99.90
8557;DHT22;4316;53.840;10.762;2022-08-24T00:28:30;19.60;99.90
8557;DHT22;4316;53.840;10.762;2022-08-24T00:30:56;19.60;99.90
8557;DHT22;4316;53.840;10.762;2022-08-24T00:33:21;19.50;99.90
8557;DHT22;4316;53.840;10.762;2022-08-24T00:35:47;19.40;99.90
8557;DHT22;4316;53.840;10.762;2022-08-24T00:38:13;19.30;99.90
8557;DHT22;4316;53.840;10.762;2022-08-24T00:40:43;19.30;99.90
8557;DHT22;4316;53.840;10.762;2022-08-24T00:43:10;19.30;99.90
8557;DHT22;4316;53.840;10.762;2022-08-24T00:45:49;19.30;99.90
8557;DHT22;4316;53.840;10.762;2022-08-24T00:48:21;19.20;99.90
8557;DHT22;4316;53.840;10.762;2022-08-24T00:50:58;19.20;99.90
8557;DHT22;4316;53.840;10.762;2022-08-24T00:53:31;19.20;99.90
8557;DHT22;4316;53.840;10.762;2022-08-24T00:56:02;19.20;99.90
8557;DHT22;4316;53.840;10.762;2022-08-24T00:58:35;19.10;99.90
8557;DHT22;4316;53.840;10.762;2022-08-24T01:01:04;19.10;99.90
8557;DHT22;4316;53.840;10.762;2022-08-24T01:03:31;19.00;99.90
8557;DHT22;4316;53.840;10.762;2022-08-24T01:05:58;18.90;99.90
8557;DHT22;4316;53.840;10.762;2022-08-24T01:08:24;18.80;99.90
8557;DHT22;4316;53.840;10.762;2022-08-24T01:10:55;18.70;99.90
8557;DHT22;4316;53.840;10.762;2022-08-24T01:13:23;18.80;99.90
8557;DHT22;4316;53.840;10.762;2022-08-24T01:15:52;18.80;99.90
8557;DHT22;4316;53.840;10.762;2022-08-24T01:18:21;18.80;99.90
8557;DHT22;4316;53.840;10.762;2022-08-24T01:21:16;18.80;99.90
8557;DHT22;4316;53.840;10.762;2022-08-24T01:23:45;18.80;99.90
8557;DHT22;4316;53.840;10.762;2022-08-24T01:26:52;18.70;99.90
8557;DHT22;4316;53.840;10.762;2022-08-24T01:29:19;18.60;99.90
8557;DHT22;4316;53.840;10.762;2022-08-24T01:31:45;18.60;99.90
8557;DHT22;4316;53.840;10.762;2022-08-24T01:34:11;18.60;99.90
8557;DHT22;4316;53.840;10.762;2022-08-24T01:36:46;18.60;99.90
8557;DHT22;4316;53.840;10.762;2022-08-24T01:39:23;18.60;99.90
8557;DHT22;4316;53.840;10.762;2022-08-24T01:41:49;18.60;99.90
8557;DHT22;4316;53.840;10.762;2022-08-24T01:44:16;18.40;99.90
8557;DHT22;4316;53.840;10.762;2022-08-24T01:46:50;18.40;99.90
8557;DHT22;4316;53.840;10.762;2022-08-24T01:49:20;18.50;99.90
8557;DHT22;4316;53.840;10.762;2022-08-24T01:51:45;18.40;99.90
8557;DHT22;4316;53.840;10.762;2022-08-24T01:54:13;18.40;99.90
8557;DHT22;4316;53.840;10.762;2022-08-24T01:56:39;18.30;99.90
8557;DHT22;4316;53.840;10.762;2022-08-24T01:59:04;18.40;99.90
8557;DHT22;4316;53.840;10.762;2022-08-24T02:01:34;18.40;99.90
8557;DHT22;4316;53.840;10.762;2022-08-24T02:04:03;18.30;99.90
8557;DHT22;4316;53.840;10.762;2022-08-24T02:06:29;18.40;99.90
8557;DHT22;4316;53.840;10.762;2022-08-24T02:08:56;18.40;99.90
8557;DHT22;4316;53.840;10.762;2022-08-24T02:11:22;18.50;99.90
8557;DHT22;4316;53.840;10.762;2022-08-24T02:13:48;18.50;99.90
8557;DHT22;4316;53.840;10.762;2022-08-24T02:16:16;18.50;99.90
8557;DHT22;4316;53.840;10.762;2022-08-24T02:18:42;18.50;99.90
8557;DHT22;4316;53.840;10.762;2022-08-24T02:21:10;18.40;99.90
8557;DHT22;4316;53.840;10.762;2022-08-24T02:23:37;18.40;99.90
8557;DHT22;4316;53.840;10.762;2022-08-24T02:26:04;18.30;99.90
8557;DHT22;4316;53.840;10.762;2022-08-24T02:28:31;18.40;99.90
8557;DHT22;4316;53.840;10.762;2022-08-24T02:30:57;18.40;99.90
8557;DHT22;4316;53.840;10.762;2022-08-24T02:33:23;18.40;99.90
8557;DHT22;4316;53.840;10.762;2022-08-24T02:35:50;18.30;99.90
8557;DHT22;4316;53.840;10.762;2022-08-24T02:38:16;18.30;99.90
8557;DHT22;4316;53.840;10.762;2022-08-24T02:40:43;18.20;99.90
8557;DHT22;4316;53.840;10.762;2022-08-24T02:43:09;18.20;99.90
8557;DHT22;4316;53.840;10.762;2022-08-24T02:45:43;18.20;99.90
8557;DHT22;4316;53.840;10.762;2022-08-24T02:48:12;18.20;99.90
8557;DHT22;4316;53.840;10.762;2022-08-24T02:50:44;18.10;99.90
8557;DHT22;4316;53.840;10.762;2022-08-24T02:53:12;18.20;99.90
8557;DHT22;4316;53.840;10.762;2022-08-24T02:55:39;18.10;99.90
8557;DHT22;4316;53.840;10.762;2022-08-24T02:58:06;18.10;99.90
8557;DHT22;4316;53.840;10.762;2022-08-24T03:00:34;18.00;99.90
8557;DHT22;4316;53.840;10.762;2022-08-24T03:03:01;18.00;99.90
8557;DHT22;4316;53.840;10.762;2022-08-24T03:05:27;17.90;99.90
8557;DHT22;4316;53.840;10.762;2022-08-24T03:07:54;17.90;99.90
8557;DHT22;4316;53.840;10.762;2022-08-24T03:10:21;17.90;99.90
8557;DHT22;4316;53.840;10.762;2022-08-24T03:12:48;17.90;99.90
8557;DHT22;4316;53.840;10.762;2022-08-24T03:15:16;17.90;99.90
8557;DHT22;4316;53.840;10.762;2022-08-24T03:17:42;17.90;99.90
8557;DHT22;4316;53.840;10.762;2022-08-24T03:20:12;17.80;99.90
8557;DHT22;4316;53.840;10.762;2022-08-24T03:22:39;17.80;99.90
8557;DHT22;4316;53.840;10.762;2022-08-24T03:25:06;17.80;99.90
8557;DHT22;4316;53.840;10.762;2022-08-24T03:27:32;17.80;99.90
8557;DHT22;4316;53.840;10.762;2022-08-24T03:29:57;17.80;99.90
8557;DHT22;4316;53.840;10.762;2022-08-24T03:32:23;17.80;99.90
8557;DHT22;4316;53.840;10.762;2022-08-24T03:34:49;17.80;99.90
8557;DHT22;4316;53.840;10.762;2022-08-24T03:37:14;17.80;99.90
8557;DHT22;4316;53.840;10.762;2022-08-24T03:39:41;17.80;99.90
8557;DHT22;4316;53.840;10.762;2022-08-24T03:42:07;17.80;99.90
8557;DHT22;4316;53.840;10.762;2022-08-24T03:44:32;17.80;99.90
8557;DHT22;4316;53.840;10.762;2022-08-24T03:46:58;17.70;99.90
8557;DHT22;4316;53.840;10.762;2022-08-24T03:49:26;17.70;99.90
8557;DHT22;4316;53.840;10.762;2022-08-24T03:51:51;17.70;99.90
8557;DHT22;4316;53.840;10.762;2022-08-24T03:54:20;17.70;99.90
8557;DHT22;4316;53.840;10.762;2022-08-24T03:56:46;17.60;99.90
8557;DHT22;4316;53.840;10.762;2022-08-24T03:59:12;17.60;99.90
8557;DHT22;4316;53.840;10.762;2022-08-24T04:01:41;17.60;99.90
8557;DHT22;4316;53.840;10.762;2022-08-24T04:04:07;17.50;99.90
8557;DHT22;4316;53.840;10.762;2022-08-24T04:06:34;17.50;99.90
8557;DHT22;4316;53.840;10.762;2022-08-24T04:09:00;17.50;99.90
8557;DHT22;4316;53.840;10.762;2022-08-24T04:11:28;17.50;99.90
8557;DHT22;4316;53.840;10.762;2022-08-24T04:13:56;17.40;99.90
8557;DHT22;4316;53.840;10.762;2022-08-24T04:16:22;17.50;99.90
8557;DHT22;4316;53.840;10.762;2022-08-24T04:18:56;17.40;99.90
8557;DHT22;4316;53.840;10.762;2022-08-24T04:21:28;17.40;99.90
8557;DHT22;4316;53.840;10.762;2022-08-24T04:23:54;17.40;99.90
8557;DHT22;4316;53.840;10.762;2022-08-24T04:26:25;17.40;99.90
8557;DHT22;4316;53.840;10.762;2022-08-24T04:28:51;17.40;99.90
8557;DHT22;4316;53.840;10.762;2022-08-24T04:31:18;17.40;99.90
8557;DHT22;4316;53.840;10.762;2022-08-24T04:33:45;17.40;99.90
8557;DHT22;4316;53.840;10.762;2022-08-24T04:36:12;17.40;99.90
8557;DHT22;4316;53.840;10.762;2022-08-24T04:38:40;17.50;99.90
8557;DHT22;4316;53.840;10.762;2022-08-24T04:41:41;17.50;99.90
8557;DHT22;4316;53.840;10.762;2022-08-24T04:44:08;17.50;99.90
8557;DHT22;4316;53.840;10.762;2022-08-24T04:46:34;17.50;99.90
8557;DHT22;4316;53.840;10.762;2022-08-24T04:49:00;17.50;99.90
8557;DHT22;4316;53.840;10.762;2022-08-24T04:51:25;17.50;99.90
8557;DHT22;4316;53.840;10.762;2022-08-24T04:53:51;17.50;99.90
8557;DHT22;4316;53.840;10.762;2022-08-24T04:56:20;17.40;99.90
8557;DHT22;4316;53.840;10.762;2022-08-24T04:58:48;17.40;99.90
8557;DHT22;4316;53.840;10.762;2022-08-24T05:01:18;17.30;99.90
8557;DHT22;4316;53.840;10.762;2022-08-24T05:03:50;17.30;99.90
8557;DHT22;4316;53.840;10.762;2022-08-24T05:06:18;17.20;99.90
8557;DHT22;4316;53.840;10.762;2022-08-24T05:08:45;17.20;99.90
8557;DHT22;4316;53.840;10.762;2022-08-24T05:11:14;17.20;99.90
8557;DHT22;4316;53.840;10.762;2022-08-24T05:13:40;17.20;99.90
8557;DHT22;4316;53.840;10.762;2022-08-24T05:16:08;17.20;99.90
8557;DHT22;4316;53.840;10.762;2022-08-24T05:18:34;17.10;99.90
8557;DHT22;4316;53.840;10.762;2022-08-24T05:21:00;17.20;99.90
8557;DHT22;4316;53.840;10.762;2022-08-24T05:23:26;17.20;99.90
8557;DHT22;4316;53.840;10.762;2022-08-24T05:25:52;17.30;99.90
8557;DHT22;4316;53.840;10.762;2022-08-24T05:28:18;17.40;99.90
8557;DHT22;4316;53.840;10.762;2022-08-24T05:30:44;17.50;99.90
8557;DHT22;4316;53.840;10.762;2022-08-24T05:33:10;17.40;99.90
8557;DHT22;4316;53.840;10.762;2022-08-24T05:35:37;17.50;99.90
8557;DHT22;4316;53.840;10.762;2022-08-24T05:38:03;17.60;99.90
8557;DHT22;4316;53.840;10.762;2022-08-24T05:40:32;17.70;99.90
8557;DHT22;4316;53.840;10.762;2022-08-24T05:42:59;17.70;99.90
8557;DHT22;4316;53.840;10.762;2022-08-24T05:45:25;17.80;99.90
8557;DHT22;4316;53.840;10.762;2022-08-24T05:47:50;17.70;99.90
8557;DHT22;4316;53.840;10.762;2022-08-24T05:50:39;17.80;99.90
8557;DHT22;4316;53.840;10.762;2022-08-24T05:53:06;18.10;99.90
8557;DHT22;4316;53.840;10.762;2022-08-24T05:55:31;18.20;99.90
8557;DHT22;4316;53.840;10.762;2022-08-24T05:57:57;18.40;99.90
8557;DHT22;4316;53.840;10.762;2022-08-24T06:00:24;18.50;99.90
8557;DHT22;4316;53.840;10.762;2022-08-24T06:02:51;18.70;99.90
8557;DHT22;4316;53.840;10.762;2022-08-24T06:05:17;18.80;99.90
8557;DHT22;4316;53.840;10.762;2022-08-24T06:07:43;19.00;99.90
8557;DHT22;4316;53.840;10.762;2022-08-24T06:10:10;19.20;99.90
8557;DHT22;4316;53.840;10.762;2022-08-24T06:12:36;19.40;99.90
8557;DHT22;4316;53.840;10.762;2022-08-24T06:15:04;19.50;99.90
8557;DHT22;4316;53.840;10.762;2022-08-24T06:17:29;19.60;99.90
8557;DHT22;4316;53.840;10.762;2022-08-24T06:19:56;19.80;99.90
8557;DHT22;4316;53.840;10.762;2022-08-24T06:22:22;19.90;99.90
8557;DHT22;4316;53.840;10.762;2022-08-24T06:24:48;20.00;99.90
8557;DHT22;4316;53.840;10.762;2022-08-24T06:27:32;20.20;99.90
8557;DHT22;4316;53.840;10.762;2022-08-24T06:30:01;20.30;99.90
8557;DHT22;4316;53.840;10.762;2022-08-24T06:32:48;20.60;99.90
8557;DHT22;4316;53.840;10.762;2022-08-24T06:35:25;20.70;99.90
8557;DHT22;4316;53.840;10.762;2022-08-24T06:37:51;21.00;99.90
8557;DHT22;4316;53.840;10.762;2022-08-24T06:40:17;21.30;99.90
8557;DHT22;4316;53.840;10.762;2022-08-24T06:42:47;21.40;99.90
8557;DHT22;4316;53.840;10.762;2022-08-24T06:45:22;21.60;99.90
8557;DHT22;4316;53.840;10.762;2022-08-24T06:47:48;21.80;99.90
8557;DHT22;4316;53.840;10.762;2022-08-24T06:50:15;21.90;99.90
8557;DHT22;4316;53.840;10.762;2022-08-24T06:52:41;22.10;99.90
8557;DHT22;4316;53.840;10.762;2022-08-24T06:55:07;22.00;99.90
8557;DHT22;4316;53.840;10.762;2022-08-24T06:57:34;21.80;99.90
8557;DHT22;4316;53.840;10.762;2022-08-24T06:59:59;22.00;99.90
8557;DHT22;4316;53.840;10.762;2022-08-24T07:02:25;22.40;99.90
8557;DHT22;4316;53.840;10.762;2022-08-24T07:04:51;22.90;99.90
8557;DHT22;4316;53.840;10.762;2022-08-24T07:07:35;23.30;99.90
8557;DHT22;4316;53.840;10.762;2022-08-24T07:10:02;23.50;99.90
8557;DHT22;4316;53.840;10.762;2022-08-24T07:12:29;23.60;99.90
8557;DHT22;4316;53.840;10.762;2022-08-24T07:14:55;23.40;99.90
8557;DHT22;4316;53.840;10.762;2022-08-24T07:17:21;23.20;99.90
8557;DHT22;4316;53.840;10.762;2022-08-24T07:19:48;22.90;99.90
8557;DHT22;4316;53.840;10.762;2022-08-24T07:22:26;23.30;99.90
8557;DHT22;4316;53.840;10.762;2022-08-24T07:24:52;23.10;99.90
8557;DHT22;4316;53.840;10.762;2022-08-24T07:27:18;23.50;99.90
8557;DHT22;4316;53.840;10.762;2022-08-24T07:29:43;23.70;99.90
8557;DHT22;4316;53.840;10.762;2022-08-24T07:32:10;23.90;99.90
8557;DHT22;4316;53.840;10.762;2022-08-24T07:34:38;24.10;99.90
8557;DHT22;4316;53.840;10.762;2022-08-24T07:37:06;24.30;99.90
8557;DHT22;4316;53.840;10.762;2022-08-24T07:39:33;24.60;99.90
8557;DHT22;4316;53.840;10.762;2022-08-24T07:41:59;24.90;99.90
8557;DHT22;4316;53.840;10.762;2022-08-24T07:44:25;24.80;99.90
8557;DHT22;4316;53.840;10.762;2022-08-24T07:46:51;24.60;99.90
8557;DHT22;4316;53.840;10.762;2022-08-24T07:49:17;25.00;99.90
8557;DHT22;4316;53.840;10.762;2022-08-24T07:51:43;25.10;99.90
8557;DHT22;4316;53.840;10.762;2022-08-24T07:54:08;24.90;99.90
8557;DHT22;4316;53.840;10.762;2022-08-24T07:56:41;24.80;99.90
8557;DHT22;4316;53.840;10.762;2022-08-24T07:59:07;25.20;99.90
8557;DHT22;4316;53.840;10.762;2022-08-24T08:01:33;25.60;99.90
8557;DHT22;4316;53.840;10.762;2022-08-24T08:04:00;25.90;99.90
8557;DHT22;4316;53.840;10.762;2022-08-24T08:06:25;26.00;99.90
8557;DHT22;4316;53.840;10.762;2022-08-24T08:08:55;26.00;99.90
8557;DHT22;4316;53.840;10.762;2022-08-24T08:11:21;26.00;99.90
8557;DHT22;4316;53.840;10.762;2022-08-24T08:13:47;26.10;99.90
8557;DHT22;4316;53.840;10.762;2022-08-24T08:16:13;26.50;99.90
8557;DHT22;4316;53.840;10.762;2022-08-24T08:18:40;26.40;99.90
8557;DHT22;4316;53.840;10.762;2022-08-24T08:21:09;26.50;99.90
8557;DHT22;4316;53.840;10.762;2022-08-24T08:23:55;26.40;99.90
8557;DHT22;4316;53.840;10.762;2022-08-24T08:26:39;26.70;99.90
8557;DHT22;4316;53.840;10.762;2022-08-24T08:29:10;26.70;99.90
8557;DHT22;4316;53.840;10.762;2022-08-24T08:31:38;26.80;99.90
8557;DHT22;4316;53.840;10.762;2022-08-24T08:34:04;26.60;99.90
8557;DHT22;4316;53.840;10.762;2022-08-24T08:36:31;26.60;99.90
8557;DHT22;4316;53.840;10.762;2022-08-24T08:38:57;26.70;99.90
8557;DHT22;4316;53.840;10.762;2022-08-24T08:42:00;26.60;99.90
8557;DHT22;4316;53.840;10.762;2022-08-24T08:44:36;26.40;99.90
8557;DHT22;4316;53.840;10.762;2022-08-24T08:50:18;27.40;99.90
8557;DHT22;4316;53.840;10.762;2022-08-24T08:56:50;27.90;99.90
8557;DHT22;4316;53.840;10.762;2022-08-24T09:14:16;27.90;99.20
8557;DHT22;4316;53.840;10.762;2022-08-24T09:22:18;28.40;97.90
8557;DHT22;4316;53.840;10.762;2022-08-24T09:28:13;28.60;97.10
8557;DHT22;4316;53.840;10.762;2022-08-24T09:31:12;28.20;97.30
8557;DHT22;4316;53.840;10.762;2022-08-24T09:34:11;28.70;96.80
8557;DHT22;4316;53.840;10.762;2022-08-24T09:36:47;28.70;97.20
8557;DHT22;4316;53.840;10.762;2022-08-24T09:42:30;29.00;96.50
8557;DHT22;4316;53.840;10.762;2022-08-24T09:48:17;29.10;95.90
8557;DHT22;4316;53.840;10.762;2022-08-24T09:53:54;29.20;96.50
8557;DHT22;4316;53.840;10.762;2022-08-24T09:57:03;29.50;95.70
8557;DHT22;4316;53.840;10.762;2022-08-24T10:02:31;29.00;95.40
8557;DHT22;4316;53.840;10.762;2022-08-24T10:10:39;28.70;95.90
8557;DHT22;4316;53.840;10.762;2022-08-24T10:13:18;28.40;95.30
8557;DHT22;4316;53.840;10.762;2022-08-24T10:16:11;28.60;95.50
8557;DHT22;4316;53.840;10.762;2022-08-24T10:18:44;28.50;95.10
8557;DHT22;4316;53.840;10.762;2022-08-24T10:24:18;29.60;93.40
8557;DHT22;4316;53.840;10.762;2022-08-24T10:30:08;30.00;94.20
8557;DHT22;4316;53.840;10.762;2022-08-24T10:32:53;29.60;93.80
8557;DHT22;4316;53.840;10.762;2022-08-24T10:35:34;29.60;93.10
8557;DHT22;4316;53.840;10.762;2022-08-24T10:38:21;29.10;93.10
8557;DHT22;4316;53.840;10.762;2022-08-24T10:46:47;28.30;93.90
8557;DHT22;4316;53.840;10.762;2022-08-24T10:49:32;28.60;94.40
8557;DHT22;4316;53.840;10.762;2022-08-24T10:55:28;29.20;93.80
8557;DHT22;4316;53.840;10.762;2022-08-24T10:58:22;29.60;93.80
8557;DHT22;4316;53.840;10.762;2022-08-24T11:00:53;29.50;93.50
8557;DHT22;4316;53.840;10.762;2022-08-24T11:03:20;29.60;93.80
8557;DHT22;4316;53.840;10.762;2022-08-24T11:05:50;30.10;93.70
8557;DHT22;4316;53.840;10.762;2022-08-24T11:11:08;29.50;92.30
8557;DHT22;4316;53.840;10.762;2022-08-24T11:13:35;29.80;93.00
8557;DHT22;4316;53.840;10.762;2022-08-24T11:16:02;29.80;92.90
8557;DHT22;4316;53.840;10.762;2022-08-24T11:21:31;29.50;93.30
8557;DHT22;4316;53.840;10.762;2022-08-24T11:24:07;29.40;92.90
8557;DHT22;4316;53.840;10.762;2022-08-24T11:26:49;29.70;93.40
8557;DHT22;4316;53.840;10.762;2022-08-24T11:29:16;29.90;92.40
8557;DHT22;4316;53.840;10.762;2022-08-24T11:31:42;29.90;92.60
8557;DHT22;4316;53.840;10.762;2022-08-24T11:34:17;30.00;92.70
8557;DHT22;4316;53.840;10.762;2022-08-24T11:36:44;30.10;92.80
8557;DHT22;4316;53.840;10.762;2022-08-24T11:39:23;29.90;92.90
8557;DHT22;4316;53.840;10.762;2022-08-24T11:42:00;29.80;92.90
8557;DHT22;4316;53.840;10.762;2022-08-24T11:44:48;29.90;93.10
8557;DHT22;4316;53.840;10.762;2022-08-24T11:53:02;28.80;93.50
8557;DHT22;4316;53.840;10.762;2022-08-24T12:00:53;29.50;93.40
8557;DHT22;4316;53.840;10.762;2022-08-24T12:11:42;29.50;93.00
8557;DHT22;4316;53.840;10.762;2022-08-24T12:17:03;29.10;92.70
8557;DHT22;4316;53.840;10.762;2022-08-24T12:19:33;28.80;93.60
8557;DHT22;4316;53.840;10.762;2022-08-24T12:22:04;29.00;93.00
8557;DHT22;4316;53.840;10.762;2022-08-24T12:24:38;29.20;94.00
8557;DHT22;4316;53.840;10.762;2022-08-24T12:27:18;29.00;93.30
8557;DHT22;4316;53.840;10.762;2022-08-24T12:32:30;29.00;93.50
8557;DHT22;4316;53.840;10.762;2022-08-24T12:35:09;28.90;92.60
8557;DHT22;4316;53.840;10.762;2022-08-24T12:38:26;29.00;93.00
8557;DHT22;4316;53.840;10.762;2022-08-24T12:40:42;29.10;92.50
8557;DHT22;4316;53.840;10.762;2022-08-24T12:43:13;29.60;92.40
8557;DHT22;4316;53.840;10.762;2022-08-24T12:45:41;29.80;91.80
8557;DHT22;4316;53.840;10.762;2022-08-24T12:48:25;29.50;92.20
8557;DHT22;4316;53.840;10.762;2022-08-24T12:56:57;28.70;92.70
8557;DHT22;4316;53.840;10.762;2022-08-24T12:59:34;28.70;92.80
8557;DHT22;4316;53.840;10.762;2022-08-24T13:02:05;28.90;92.90
8557;DHT22;4316;53.840;10.762;2022-08-24T13:10:12;29.20;93.40
8557;DHT22;4316;53.840;10.762;2022-08-24T13:18:00;29.80;93.20
8557;DHT22;4316;53.840;10.762;2022-08-24T13:31:12;29.60;92.40
8557;DHT22;4316;53.840;10.762;2022-08-24T13:33:52;29.50;92.90
8557;DHT22;4316;53.840;10.762;2022-08-24T13:39:13;30.00;92.60
8557;DHT22;4316;53.840;10.762;2022-08-24T13:59:08;30.10;92.10
8557;DHT22;4316;53.840;10.762;2022-08-24T14:06:55;29.70;92.00
8557;DHT22;4316;53.840;10.762;2022-08-24T14:09:40;29.70;92.40
8557;DHT22;4316;53.840;10.762;2022-08-24T14:15:16;29.90;92.30
8557;DHT22;4316;53.840;10.762;2022-08-24T14:18:05;29.70;92.30
8557;DHT22;4316;53.840;10.762;2022-08-24T14:23:46;30.00;93.10
8557;DHT22;4316;53.840;10.762;2022-08-24T14:32:27;29.70;93.90
8557;DHT22;4316;53.840;10.762;2022-08-24T14:34:38;29.50;94.20
8557;DHT22;4316;53.840;10.762;2022-08-24T14:39:39;29.40;95.10
8557;DHT22;4316;53.840;10.762;2022-08-24T14:45:06;29.40;95.30
8557;DHT22;4316;53.840;10.762;2022-08-24T14:47:40;29.20;95.20
8557;DHT22;4316;53.840;10.762;2022-08-24T14:50:15;29.30;95.30
8557;DHT22;4316;53.840;10.762;2022-08-24T14:52:57;29.50;95.50
8557;DHT22;4316;53.840;10.762;2022-08-24T14:55:41;29.40;95.20
8557;DHT22;4316;53.840;10.762;2022-08-24T14:58:32;29.30;95.20
8557;DHT22;4316;53.840;10.762;2022-08-24T15:06:46;29.50;94.80
8557;DHT22;4316;53.840;10.762;2022-08-24T15:09:31;29.50;94.90
8557;DHT22;4316;53.840;10.762;2022-08-24T15:14:51;29.80;94.80
8557;DHT22;4316;53.840;10.762;2022-08-24T15:17:22;30.00;94.80
8557;DHT22;4316;53.840;10.762;2022-08-24T15:20:15;30.20;94.80
8557;DHT22;4316;53.840;10.762;2022-08-24T15:23:06;30.20;94.80
8557;DHT22;4316;53.840;10.762;2022-08-24T15:25:52;30.20;94.80
8557;DHT22;4316;53.840;10.762;2022-08-24T15:28:26;29.70;95.00
8557;DHT22;4316;53.840;10.762;2022-08-24T15:31:17;29.80;95.30
8557;DHT22;4316;53.840;10.762;2022-08-24T15:34:01;29.90;95.20
8557;DHT22;4316;53.840;10.762;2022-08-24T15:36:28;29.90;95.40
8557;DHT22;4316;53.840;10.762;2022-08-24T15:39:03;30.00;95.30
8557;DHT22;4316;53.840;10.762;2022-08-24T15:41:33;30.00;95.20
8557;DHT22;4316;53.840;10.762;2022-08-24T15:46:46;30.00;95.30
8557;DHT22;4316;53.840;10.762;2022-08-24T15:49:25;29.60;95.50
8557;DHT22;4316;53.840;10.762;2022-08-24T15:52:05;29.60;95.70
8557;DHT22;4316;53.840;10.762;2022-08-24T15:54:54;29.50;95.90
8557;DHT22;4316;53.840;10.762;2022-08-24T15:59:51;29.20;96.20
8557;DHT22;4316;53.840;10.762;2022-08-24T16:02:35;29.10;96.10
8557;DHT22;4316;53.840;10.762;2022-08-24T16:05:18;29.00;96.40
8557;DHT22;4316;53.840;10.762;2022-08-24T16:10:32;28.90;96.70
8557;DHT22;4316;53.840;10.762;2022-08-24T16:16:06;28.50;96.80
8557;DHT22;4316;53.840;10.762;2022-08-24T16:21:28;28.50;96.90
8557;DHT22;4316;53.840;10.762;2022-08-24T16:32:28;28.50;96.90
8557;DHT22;4316;53.840;10.762;2022-08-24T16:37:25;28.50;97.00
8557;DHT22;4316;53.840;10.762;2022-08-24T16:39:51;28.50;97.00
8557;DHT22;4316;53.840;10.762;2022-08-24T16:42:25;28.40;97.10
8557;DHT22;4316;53.840;10.762;2022-08-24T16:44:51;28.50;97.40
8557;DHT22;4316;53.840;10.762;2022-08-24T16:47:18;28.40;97.10
8557;DHT22;4316;53.840;10.762;2022-08-24T16:49:44;28.10;97.30
8557;DHT22;4316;53.840;10.762;2022-08-24T16:52:10;27.80;97.60
8557;DHT22;4316;53.840;10.762;2022-08-24T16:54:36;27.80;97.90
8557;DHT22;4316;53.840;10.762;2022-08-24T16:57:10;27.50;97.80
8557;DHT22;4316;53.840;10.762;2022-08-24T16:59:36;27.20;98.10
8557;DHT22;4316;53.840;10.762;2022-08-24T17:02:02;27.30;98.00
8557;DHT22;4316;53.840;10.762;2022-08-24T17:04:28;27.20;98.20
8557;DHT22;4316;53.840;10.762;2022-08-24T17:06:53;27.30;98.40
8557;DHT22;4316;53.840;10.762;2022-08-24T17:09:20;27.40;98.00
8557;DHT22;4316;53.840;10.762;2022-08-24T17:11:46;27.40;98.10
8557;DHT22;4316;53.840;10.762;2022-08-24T17:14:13;27.40;98.00
8557;DHT22;4316;53.840;10.762;2022-08-24T17:16:39;27.40;98.10
8557;DHT22;4316;53.840;10.762;2022-08-24T17:19:08;27.30;98.00
8557;DHT22;4316;53.840;10.762;2022-08-24T17:21:36;27.30;98.20
8557;DHT22;4316;53.840;10.762;2022-08-24T17:24:02;27.40;98.20
8557;DHT22;4316;53.840;10.762;2022-08-24T17:26:29;27.40;98.20
8557;DHT22;4316;53.840;10.762;2022-08-24T17:28:55;27.40;98.00
8557;DHT22;4316;53.840;10.762;2022-08-24T17:31:21;27.20;98.30
8557;DHT22;4316;53.840;10.762;2022-08-24T17:33:50;27.30;98.50
8557;DHT22;4316;53.840;10.762;2022-08-24T17:36:17;27.40;98.30
8557;DHT22;4316;53.840;10.762;2022-08-24T17:38:48;27.40;98.40
8557;DHT22;4316;53.840;10.762;2022-08-24T17:41:14;27.30;98.60
8557;DHT22;4316;53.840;10.762;2022-08-24T17:43:41;27.20;98.60
8557;DHT22;4316;53.840;10.762;2022-08-24T17:46:09;27.20;98.60
8557;DHT22;4316;53.840;10.762;2022-08-24T17:48:37;27.20;98.70
8557;DHT22;4316;53.840;10.762;2022-08-24T17:51:03;27.20;98.70
8557;DHT22;4316;53.840;10.762;2022-08-24T17:53:28;27.20;98.70
8557;DHT22;4316;53.840;10.762;2022-08-24T17:55:54;27.20;98.70
8557;DHT22;4316;53.840;10.762;2022-08-24T17:58:19;27.00;98.80
8557;DHT22;4316;53.840;10.762;2022-08-24T18:00:45;26.90;99.00
8557;DHT22;4316;53.840;10.762;2022-08-24T18:03:11;26.90;99.00
8557;DHT22;4316;53.840;10.762;2022-08-24T18:05:36;26.80;99.20
8557;DHT22;4316;53.840;10.762;2022-08-24T18:08:02;26.80;99.30
8557;DHT22;4316;53.840;10.762;2022-08-24T18:10:29;26.70;99.40
8557;DHT22;4316;53.840;10.762;2022-08-24T18:12:57;26.70;99.50
8557;DHT22;4316;53.840;10.762;2022-08-24T18:15:24;26.60;99.60
8557;DHT22;4316;53.840;10.762;2022-08-24T18:17:52;26.60;99.60
8557;DHT22;4316;53.840;10.762;2022-08-24T18:20:25;26.60;99.70
8557;DHT22;4316;53.840;10.762;2022-08-24T18:22:52;26.60;99.80
8557;DHT22;4316;53.840;10.762;2022-08-24T18:25:19;26.60;99.80
8557;DHT22;4316;53.840;10.762;2022-08-24T18:27:46;26.50;99.90
8557;DHT22;4316;53.840;10.762;2022-08-24T18:30:39;26.40;99.90
8557;DHT22;4316;53.840;10.762;2022-08-24T18:33:05;26.20;99.90
8557;DHT22;4316;53.840;10.762;2022-08-24T18:35:31;26.00;99.90
8557;DHT22;4316;53.840;10.762;2022-08-24T18:37:57;26.00;99.90
8557;DHT22;4316;53.840;10.762;2022-08-24T18:40:23;26.00;99.90
8557;DHT22;4316;53.840;10.762;2022-08-24T18:42:51;25.90;99.90
8557;DHT22;4316;53.840;10.762;2022-08-24T18:45:17;25.90;99.90
8557;DHT22;4316;53.840;10.762;2022-08-24T18:47:42;25.90;99.90
8557;DHT22;4316;53.840;10.762;2022-08-24T18:50:08;25.90;99.90
8557;DHT22;4316;53.840;10.762;2022-08-24T18:52:35;25.80;99.90
8557;DHT22;4316;53.840;10.762;2022-08-24T18:55:03;25.80;99.90
8557;DHT22;4316;53.840;10.762;2022-08-24T18:57:30;25.80;99.90
8557;DHT22;4316;53.840;10.762;2022-08-24T18:59:55;25.80;99.90
8557;DHT22;4316;53.840;10.762;2022-08-24T19:02:22;25.70;99.90
8557;DHT22;4316;53.840;10.762;2022-08-24T19:05:20;25.60;99.90
8557;DHT22;4316;53.840;10.762;2022-08-24T19:07:48;25.60;99.90
8557;DHT22;4316;53.840;10.762;2022-08-24T19:10:26;25.50;99.90
8557;DHT22;4316;53.840;10.762;2022-08-24T19:12:56;25.50;99.90
8557;DHT22;4316;53.840;10.762;2022-08-24T19:15:22;25.40;99.90
8557;DHT22;4316;53.840;10.762;2022-08-24T19:17:48;25.30;99.90
8557;DHT22;4316;53.840;10.762;2022-08-24T19:20:14;25.20;99.90
8557;DHT22;4316;53.840;10.762;2022-08-24T19:22:41;25.10;99.90
8557;DHT22;4316;53.840;10.762;2022-08-24T19:25:23;25.10;99.90